FIN3PW EFVA-PAFA
Flight info
| Callsign | FIN3PW |
|---|---|
| Flight time | N/A |
| Altitude | 37000 |
| Route | RERBU T255 RIBVU/N0461F380 Y75 ASLUP DCT EXUTI DCT HMF DCT EDIKI DCT OTVIK DCT AMPIS/N0477F390 DCT RITAK/K0882F390 DCT ABERI DCT DEVID DCT 88N160W/N0473F400 80N150W/N0472F390 79N150W 78N150W 77N150W DCT OOSIK DCT FAI |
| Aircraft | A333/H-SDE3GHIJ2J3J5M1RVWXY/LB2D1 |
Departure
| Time | 2026-04-12 17:02 |
|---|---|
| Airport | Vaasa Airport (EFVA) |
Arrival
| Time | N/A |
|---|---|
| Airport | Fairbanks International Airport (PAFA) |
| Time | Latitude | Longitude | Altitude | Speed | Heading |
|---|---|---|---|---|---|
| 2026-04-12 16:38 | 63.04491 | 21.76135 | 28 ft | 0 kts | 283° |
| 2026-04-12 16:56 | 63.04490 | 21.76141 | 28 ft | 3 kts | 283° |
| 2026-04-12 16:56 | 63.04486 | 21.76181 | 27 ft | 3 kts | 266° |
| 2026-04-12 16:56 | 63.04491 | 21.76223 | 25 ft | 3 kts | 220° |
| 2026-04-12 16:56 | 63.04502 | 21.76239 | 25 ft | 0 kts | 192° |
| 2026-04-12 16:58 | 63.04501 | 21.76239 | 25 ft | 1 kts | 192° |
| 2026-04-12 16:58 | 63.04449 | 21.76256 | 28 ft | 13 kts | 166° |
| 2026-04-12 16:58 | 63.04356 | 21.76345 | 28 ft | 11 kts | 124° |
| 2026-04-12 16:58 | 63.04360 | 21.76487 | 29 ft | 0 kts | 75° |
| 2026-04-12 16:59 | 63.04360 | 21.76491 | 29 ft | 2 kts | 75° |
| 2026-04-12 16:59 | 63.04368 | 21.76564 | 31 ft | 7 kts | 78° |
| 2026-04-12 16:59 | 63.04351 | 21.76684 | 32 ft | 12 kts | 140° |
| 2026-04-12 16:59 | 63.04258 | 21.76750 | 33 ft | 17 kts | 163° |
| 2026-04-12 17:00 | 63.04121 | 21.76829 | 29 ft | 11 kts | 184° |
| 2026-04-12 17:00 | 63.04096 | 21.76840 | 29 ft | 0 kts | 152° |
| 2026-04-12 17:00 | 63.04094 | 21.76855 | 29 ft | 1 kts | 113° |
| 2026-04-12 17:00 | 63.04099 | 21.76871 | 29 ft | 1 kts | 56° |
| 2026-04-12 17:01 | 63.04106 | 21.76873 | 29 ft | 1 kts | 17° |
| 2026-04-12 17:01 | 63.04122 | 21.76859 | 29 ft | 6 kts | 342° |
| 2026-04-12 17:01 | 63.04352 | 21.76681 | 32 ft | 65 kts | 343° |
| 2026-04-12 17:01 | 63.04997 | 21.76251 | 30 ft | 127 kts | 343° |
| 2026-04-12 17:02 | 63.05961 | 21.75626 | 333 ft | 151 kts | 342° |
| 2026-04-12 17:02 | 63.07018 | 21.74938 | 752 ft | 175 kts | 344° |
| 2026-04-12 17:02 | 63.08320 | 21.74067 | 914 ft | 219 kts | 343° |
| 2026-04-12 17:02 | 63.09975 | 21.72953 | 891 ft | 271 kts | 343° |
| 2026-04-12 17:03 | 63.11947 | 21.72205 | 896 ft | 314 kts | 3° |
| 2026-04-12 17:03 | 63.14142 | 21.73632 | 882 ft | 349 kts | 30° |
| 2026-04-12 17:03 | 63.15967 | 21.77111 | 2078 ft | 324 kts | 47° |
| 2026-04-12 17:03 | 63.17421 | 21.79920 | 5270 ft | 239 kts | 37° |
| 2026-04-12 17:04 | 63.18706 | 21.81378 | 7598 ft | 180 kts | 18° |
| 2026-04-12 17:04 | 63.19957 | 21.81791 | 8356 ft | 186 kts | 5° |
| 2026-04-12 17:04 | 63.21274 | 21.82093 | 8468 ft | 203 kts | 9° |
| 2026-04-12 17:04 | 63.22930 | 21.82442 | 7686 ft | 273 kts | 10° |
| 2026-04-12 17:05 | 63.24808 | 21.83937 | 7656 ft | 300 kts | 32° |
| 2026-04-12 17:05 | 63.26627 | 21.86580 | 7722 ft | 326 kts | 37° |
| 2026-04-12 17:05 | 63.28549 | 21.89629 | 7730 ft | 353 kts | 37° |
| 2026-04-12 17:05 | 63.30610 | 21.92924 | 7706 ft | 377 kts | 37° |
| 2026-04-12 17:06 | 63.32759 | 21.96518 | 7919 ft | 383 kts | 42° |
| 2026-04-12 17:06 | 63.34380 | 22.00602 | 10385 ft | 308 kts | 60° |
| 2026-04-12 17:06 | 63.35364 | 22.04127 | 13320 ft | 233 kts | 61° |
| 2026-04-12 17:06 | 63.36032 | 22.06873 | 15149 ft | 174 kts | 77° |
| 2026-04-12 17:07 | 63.36085 | 22.09500 | 15306 ft | 186 kts | 93° |
| 2026-04-12 17:07 | 63.36100 | 22.12821 | 14601 ft | 244 kts | 87° |
| 2026-04-12 17:07 | 63.36159 | 22.16929 | 14268 ft | 282 kts | 101° |
| 2026-04-12 17:07 | 63.35288 | 22.20926 | 14431 ft | 299 kts | 133° |
| 2026-04-12 17:08 | 63.33523 | 22.23516 | 14643 ft | 315 kts | 160° |
| 2026-04-12 17:08 | 63.32078 | 22.24173 | 14792 ft | 327 kts | 177° |
| 2026-04-12 17:08 | 63.29800 | 22.23218 | 15010 ft | 346 kts | 203° |
| 2026-04-12 17:08 | 63.27759 | 22.20189 | 15227 ft | 359 kts | 209° |
| 2026-04-12 17:09 | 63.25458 | 22.18026 | 15627 ft | 363 kts | 195° |
| 2026-04-12 17:09 | 63.23043 | 22.18253 | 16351 ft | 348 kts | 149° |
| 2026-04-12 17:09 | 63.21434 | 22.21838 | 17739 ft | 322 kts | 120° |
| 2026-04-12 17:09 | 63.20682 | 22.26509 | 18222 ft | 330 kts | 97° |
| 2026-04-12 17:10 | 63.20892 | 22.31694 | 18254 ft | 351 kts | 73° |
| 2026-04-12 17:10 | 63.22110 | 22.36535 | 18251 ft | 373 kts | 53° |
| 2026-04-12 17:10 | 63.23784 | 22.41099 | 18248 ft | 389 kts | 57° |
| 2026-04-12 17:10 | 63.25307 | 22.46184 | 18248 ft | 404 kts | 57° |
| 2026-04-12 17:11 | 63.27187 | 22.50996 | 18233 ft | 421 kts | 47° |
| 2026-04-12 17:11 | 63.29481 | 22.55241 | 18233 ft | 438 kts | 34° |
| 2026-04-12 17:11 | 63.32301 | 22.58081 | 18233 ft | 456 kts | 17° |
| 2026-04-12 17:11 | 63.35443 | 22.59106 | 18913 ft | 453 kts | 4° |
| 2026-04-12 17:12 | 63.38551 | 22.58727 | 19856 ft | 444 kts | 353° |
| 2026-04-12 17:12 | 63.41460 | 22.57013 | 20803 ft | 434 kts | 340° |
| 2026-04-12 17:12 | 63.44131 | 22.53870 | 21752 ft | 425 kts | 326° |
| 2026-04-12 17:12 | 63.46342 | 22.49620 | 22735 ft | 411 kts | 324° |
| 2026-04-12 17:13 | 63.48801 | 22.46485 | 23225 ft | 409 kts | 342° |
| 2026-04-12 17:13 | 63.51602 | 22.45286 | 23244 ft | 414 kts | 3° |
| 2026-04-12 17:13 | 63.54449 | 22.46269 | 23226 ft | 418 kts | 23° |
| 2026-04-12 17:13 | 63.56983 | 22.49261 | 23231 ft | 420 kts | 41° |
| 2026-04-12 17:14 | 63.59021 | 22.54073 | 23236 ft | 423 kts | 59° |
| 2026-04-12 17:14 | 63.60443 | 22.59801 | 23252 ft | 429 kts | 68° |
| 2026-04-12 17:14 | 63.61586 | 22.66012 | 23374 ft | 435 kts | 73° |
| 2026-04-12 17:14 | 63.62511 | 22.72471 | 24097 ft | 423 kts | 77° |
| 2026-04-12 17:15 | 63.63340 | 22.78715 | 24766 ft | 419 kts | 76° |
| 2026-04-12 17:15 | 63.64238 | 22.85029 | 24808 ft | 429 kts | 75° |
| 2026-04-12 17:15 | 63.65190 | 22.91449 | 24808 ft | 438 kts | 74° |
| 2026-04-12 17:15 | 63.66200 | 22.98019 | 24808 ft | 449 kts | 72° |
| 2026-04-12 17:16 | 63.67522 | 23.04477 | 24806 ft | 461 kts | 64° |
| 2026-04-12 17:16 | 63.69335 | 23.10559 | 24802 ft | 474 kts | 54° |
| 2026-04-12 17:16 | 63.71601 | 23.16049 | 24814 ft | 481 kts | 48° |
| 2026-04-12 17:16 | 63.74022 | 23.21251 | 24818 ft | 479 kts | 46° |
| 2026-04-12 17:17 | 63.76487 | 23.26235 | 24805 ft | 471 kts | 44° |
| 2026-04-12 17:17 | 63.78932 | 23.31057 | 24806 ft | 463 kts | 44° |
| 2026-04-12 17:17 | 63.81345 | 23.35802 | 24807 ft | 456 kts | 44° |
| 2026-04-12 17:17 | 63.83766 | 23.40609 | 24504 ft | 471 kts | 44° |
| 2026-04-12 17:18 | 63.86253 | 23.45607 | 24453 ft | 482 kts | 45° |
| 2026-04-12 17:18 | 63.88773 | 23.50715 | 24447 ft | 490 kts | 45° |
| 2026-04-12 17:18 | 63.91314 | 23.55891 | 24839 ft | 485 kts | 45° |
| 2026-04-12 17:18 | 63.93780 | 23.60918 | 25922 ft | 467 kts | 45° |
| 2026-04-12 17:19 | 63.96153 | 23.65754 | 26984 ft | 451 kts | 45° |
| 2026-04-12 17:19 | 63.98551 | 23.70335 | 27333 ft | 454 kts | 40° |
| 2026-04-12 17:19 | 64.01110 | 23.74657 | 27321 ft | 462 kts | 39° |
| 2026-04-12 17:19 | 64.03752 | 23.78959 | 27321 ft | 470 kts | 38° |
| 2026-04-12 17:20 | 64.06460 | 23.83273 | 27329 ft | 478 kts | 37° |
| 2026-04-12 17:20 | 64.09210 | 23.87611 | 27415 ft | 483 kts | 37° |
| 2026-04-12 17:20 | 64.11972 | 23.91956 | 27843 ft | 480 kts | 37° |
| 2026-04-12 17:20 | 64.14724 | 23.96297 | 28128 ft | 481 kts | 37° |
| 2026-04-12 17:21 | 64.17483 | 24.00673 | 28337 ft | 483 kts | 37° |
| 2026-04-12 17:21 | 64.20246 | 24.05076 | 28554 ft | 485 kts | 37° |
| 2026-04-12 17:21 | 64.23022 | 24.09521 | 28777 ft | 487 kts | 37° |
| 2026-04-12 17:21 | 64.25801 | 24.13985 | 29000 ft | 488 kts | 37° |
| 2026-04-12 17:22 | 64.28587 | 24.18475 | 29210 ft | 490 kts | 37° |
| 2026-04-12 17:22 | 64.31379 | 24.22986 | 29420 ft | 491 kts | 37° |
| 2026-04-12 17:22 | 64.34182 | 24.27524 | 29623 ft | 493 kts | 37° |
| 2026-04-12 17:22 | 64.36991 | 24.32085 | 29832 ft | 495 kts | 37° |